sensor_id;sensor_type;location;lat;lon;timestamp;P1;durP1;ratioP1;P2;durP2;ratioP2
62509;SDS011;48558;48.242;11.654;2023-02-19T00:02:16;2.15;;;1.27;;
62509;SDS011;48558;48.242;11.654;2023-02-19T00:06:29;1.40;;;1.40;;
62509;SDS011;48558;48.242;11.654;2023-02-19T00:10:43;1.02;;;1.02;;
62509;SDS011;48558;48.242;11.654;2023-02-19T00:14:57;1.05;;;1.05;;
62509;SDS011;48558;48.242;11.654;2023-02-19T00:19:20;1.17;;;1.10;;
62509;SDS011;48558;48.242;11.654;2023-02-19T00:23:32;1.33;;;1.27;;
62509;SDS011;48558;48.242;11.654;2023-02-19T00:27:45;1.27;;;1.20;;
62509;SDS011;48558;48.242;11.654;2023-02-19T00:31:57;2.17;;;1.50;;
62509;SDS011;48558;48.242;11.654;2023-02-19T00:36:10;1.85;;;1.25;;
62509;SDS011;48558;48.242;11.654;2023-02-19T00:40:24;2.35;;;1.38;;
62509;SDS011;48558;48.242;11.654;2023-02-19T00:44:37;1.20;;;1.13;;
62509;SDS011;48558;48.242;11.654;2023-02-19T00:48:49;1.38;;;1.25;;
62509;SDS011;48558;48.242;11.654;2023-02-19T00:53:03;2.75;;;1.45;;
62509;SDS011;48558;48.242;11.654;2023-02-19T00:57:16;4.10;;;1.77;;
62509;SDS011;48558;48.242;11.654;2023-02-19T01:01:28;1.08;;;1.08;;
62509;SDS011;48558;48.242;11.654;2023-02-19T01:05:41;1.38;;;1.30;;
62509;SDS011;48558;48.242;11.654;2023-02-19T01:09:53;1.45;;;1.35;;
62509;SDS011;48558;48.242;11.654;2023-02-19T01:14:05;1.05;;;1.05;;
62509;SDS011;48558;48.242;11.654;2023-02-19T01:18:18;1.20;;;1.10;;
62509;SDS011;48558;48.242;11.654;2023-02-19T01:22:31;0.82;;;0.82;;
62509;SDS011;48558;48.242;11.654;2023-02-19T01:26:43;1.52;;;1.42;;
62509;SDS011;48558;48.242;11.654;2023-02-19T01:30:59;2.13;;;1.20;;
62509;SDS011;48558;48.242;11.654;2023-02-19T01:35:16;1.13;;;1.02;;
62509;SDS011;48558;48.242;11.654;2023-02-19T01:39:29;1.02;;;1.02;;
62509;SDS011;48558;48.242;11.654;2023-02-19T01:43:58;2.20;;;1.40;;
62509;SDS011;48558;48.242;11.654;2023-02-19T01:48:20;1.17;;;1.08;;
62509;SDS011;48558;48.242;11.654;2023-02-19T01:52:37;1.00;;;1.00;;
62509;SDS011;48558;48.242;11.654;2023-02-19T01:56:49;1.27;;;1.00;;
62509;SDS011;48558;48.242;11.654;2023-02-19T02:01:04;1.17;;;1.17;;
62509;SDS011;48558;48.242;11.654;2023-02-19T02:05:22;0.80;;;0.80;;
62509;SDS011;48558;48.242;11.654;2023-02-19T02:09:46;1.40;;;1.25;;
62509;SDS011;48558;48.242;11.654;2023-02-19T02:14:17;1.20;;;1.20;;
62509;SDS011;48558;48.242;11.654;2023-02-19T02:18:42;1.38;;;1.27;;
62509;SDS011;48558;48.242;11.654;2023-02-19T02:32:34;1.30;;;1.25;;
62509;SDS011;48558;48.242;11.654;2023-02-19T02:37:04;1.38;;;1.27;;
62509;SDS011;48558;48.242;11.654;2023-02-19T02:41:19;1.10;;;1.10;;
62509;SDS011;48558;48.242;11.654;2023-02-19T02:45:32;0.95;;;0.95;;
62509;SDS011;48558;48.242;11.654;2023-02-19T02:49:49;1.67;;;1.30;;
62509;SDS011;48558;48.242;11.654;2023-02-19T02:54:19;1.50;;;0.90;;
62509;SDS011;48558;48.242;11.654;2023-02-19T02:58:52;1.10;;;1.00;;
62509;SDS011;48558;48.242;11.654;2023-02-19T03:03:07;1.25;;;1.10;;
62509;SDS011;48558;48.242;11.654;2023-02-19T03:07:20;1.27;;;1.23;;
62509;SDS011;48558;48.242;11.654;2023-02-19T03:11:33;1.65;;;1.00;;
62509;SDS011;48558;48.242;11.654;2023-02-19T03:16:09;4.72;;;1.60;;
62509;SDS011;48558;48.242;11.654;2023-02-19T03:20:49;5.28;;;1.88;;
62509;SDS011;48558;48.242;11.654;2023-02-19T03:25:10;2.85;;;1.50;;
62509;SDS011;48558;48.242;11.654;2023-02-19T03:29:48;1.73;;;1.20;;
62509;SDS011;48558;48.242;11.654;2023-02-19T03:34:04;2.42;;;1.75;;
62509;SDS011;48558;48.242;11.654;2023-02-19T03:43:01;1.58;;;1.48;;
62509;SDS011;48558;48.242;11.654;2023-02-19T03:47:29;1.95;;;1.52;;
62509;SDS011;48558;48.242;11.654;2023-02-19T03:51:50;1.50;;;1.40;;
62509;SDS011;48558;48.242;11.654;2023-02-19T03:56:28;1.98;;;1.73;;
62509;SDS011;48558;48.242;11.654;2023-02-19T04:00:54;1.67;;;1.40;;
62509;SDS011;48558;48.242;11.654;2023-02-19T04:05:16;1.92;;;1.70;;
62509;SDS011;48558;48.242;11.654;2023-02-19T04:09:38;1.45;;;1.35;;
62509;SDS011;48558;48.242;11.654;2023-02-19T04:18:21;1.20;;;1.20;;
62509;SDS011;48558;48.242;11.654;2023-02-19T04:22:40;1.50;;;1.40;;
62509;SDS011;48558;48.242;11.654;2023-02-19T04:26:53;1.05;;;1.02;;
62509;SDS011;48558;48.242;11.654;2023-02-19T04:31:07;2.28;;;1.50;;
62509;SDS011;48558;48.242;11.654;2023-02-19T04:35:20;1.50;;;1.30;;
62509;SDS011;48558;48.242;11.654;2023-02-19T04:39:41;2.65;;;1.38;;
62509;SDS011;48558;48.242;11.654;2023-02-19T04:43:53;1.45;;;1.35;;
62509;SDS011;48558;48.242;11.654;2023-02-19T04:48:06;1.73;;;1.63;;
62509;SDS011;48558;48.242;11.654;2023-02-19T04:52:18;1.35;;;1.25;;
62509;SDS011;48558;48.242;11.654;2023-02-19T04:56:31;2.50;;;1.83;;
62509;SDS011;48558;48.242;11.654;2023-02-19T05:00:43;1.48;;;1.38;;
62509;SDS011;48558;48.242;11.654;2023-02-19T05:04:55;1.35;;;1.27;;
62509;SDS011;48558;48.242;11.654;2023-02-19T05:09:08;1.17;;;1.17;;
62509;SDS011;48558;48.242;11.654;2023-02-19T05:13:20;1.50;;;1.40;;
62509;SDS011;48558;48.242;11.654;2023-02-19T05:17:33;1.60;;;1.50;;
62509;SDS011;48558;48.242;11.654;2023-02-19T05:21:46;2.38;;;1.17;;
62509;SDS011;48558;48.242;11.654;2023-02-19T05:26:03;1.23;;;1.13;;
62509;SDS011;48558;48.242;11.654;2023-02-19T05:30:17;1.33;;;1.30;;
62509;SDS011;48558;48.242;11.654;2023-02-19T05:34:30;1.77;;;1.45;;
62509;SDS011;48558;48.242;11.654;2023-02-19T05:38:42;1.85;;;1.40;;
62509;SDS011;48558;48.242;11.654;2023-02-19T05:42:55;1.17;;;1.08;;
62509;SDS011;48558;48.242;11.654;2023-02-19T05:47:07;1.83;;;1.40;;
62509;SDS011;48558;48.242;11.654;2023-02-19T05:51:21;1.70;;;1.42;;
62509;SDS011;48558;48.242;11.654;2023-02-19T05:55:36;1.70;;;1.60;;
62509;SDS011;48558;48.242;11.654;2023-02-19T05:59:48;1.45;;;1.40;;
62509;SDS011;48558;48.242;11.654;2023-02-19T06:04:01;1.20;;;1.20;;
62509;SDS011;48558;48.242;11.654;2023-02-19T06:08:14;2.05;;;1.95;;
62509;SDS011;48558;48.242;11.654;2023-02-19T06:12:27;1.83;;;1.73;;
62509;SDS011;48558;48.242;11.654;2023-02-19T06:16:40;1.92;;;1.30;;
62509;SDS011;48558;48.242;11.654;2023-02-19T06:20:53;1.40;;;1.30;;
62509;SDS011;48558;48.242;11.654;2023-02-19T06:25:05;1.40;;;1.30;;
62509;SDS011;48558;48.242;11.654;2023-02-19T06:29:23;1.00;;;1.00;;
62509;SDS011;48558;48.242;11.654;2023-02-19T06:33:44;1.67;;;1.58;;
62509;SDS011;48558;48.242;11.654;2023-02-19T06:37:57;1.52;;;1.48;;
62509;SDS011;48558;48.242;11.654;2023-02-19T06:42:10;1.58;;;1.48;;
62509;SDS011;48558;48.242;11.654;2023-02-19T06:46:22;2.22;;;1.25;;
62509;SDS011;48558;48.242;11.654;2023-02-19T06:50:35;1.77;;;1.67;;
62509;SDS011;48558;48.242;11.654;2023-02-19T06:54:47;1.25;;;1.25;;
62509;SDS011;48558;48.242;11.654;2023-02-19T06:59:14;1.50;;;1.40;;
62509;SDS011;48558;48.242;11.654;2023-02-19T07:03:40;1.25;;;1.15;;
62509;SDS011;48558;48.242;11.654;2023-02-19T07:07:52;0.93;;;0.93;;
62509;SDS011;48558;48.242;11.654;2023-02-19T07:12:05;1.33;;;1.23;;
62509;SDS011;48558;48.242;11.654;2023-02-19T07:16:18;1.77;;;1.65;;
62509;SDS011;48558;48.242;11.654;2023-02-19T07:20:30;1.13;;;1.08;;
62509;SDS011;48558;48.242;11.654;2023-02-19T07:24:43;1.70;;;1.60;;
62509;SDS011;48558;48.242;11.654;2023-02-19T07:28:58;1.60;;;1.48;;
62509;SDS011;48558;48.242;11.654;2023-02-19T07:33:10;1.17;;;1.15;;
62509;SDS011;48558;48.242;11.654;2023-02-19T07:37:23;1.70;;;1.60;;
62509;SDS011;48558;48.242;11.654;2023-02-19T07:41:35;3.08;;;1.90;;
62509;SDS011;48558;48.242;11.654;2023-02-19T07:45:48;2.25;;;2.00;;
62509;SDS011;48558;48.242;11.654;2023-02-19T07:50:01;2.40;;;2.30;;
62509;SDS011;48558;48.242;11.654;2023-02-19T07:54:24;3.88;;;2.22;;
62509;SDS011;48558;48.242;11.654;2023-02-19T07:58:36;1.50;;;1.40;;
62509;SDS011;48558;48.242;11.654;2023-02-19T08:02:49;1.58;;;1.48;;
62509;SDS011;48558;48.242;11.654;2023-02-19T08:07:10;2.58;;;1.52;;
62509;SDS011;48558;48.242;11.654;2023-02-19T08:11:23;3.72;;;1.70;;
62509;SDS011;48558;48.242;11.654;2023-02-19T08:15:55;1.73;;;1.63;;
62509;SDS011;48558;48.242;11.654;2023-02-19T08:20:32;1.80;;;1.70;;
62509;SDS011;48558;48.242;11.654;2023-02-19T08:24:44;2.22;;;1.65;;
62509;SDS011;48558;48.242;11.654;2023-02-19T08:28:57;2.15;;;2.00;;
62509;SDS011;48558;48.242;11.654;2023-02-19T08:33:13;1.77;;;1.67;;
62509;SDS011;48558;48.242;11.654;2023-02-19T08:37:31;1.63;;;1.52;;
62509;SDS011;48558;48.242;11.654;2023-02-19T08:41:43;1.60;;;1.50;;
62509;SDS011;48558;48.242;11.654;2023-02-19T08:45:56;1.67;;;1.50;;
62509;SDS011;48558;48.242;11.654;2023-02-19T08:50:09;1.33;;;1.23;;
62509;SDS011;48558;48.242;11.654;2023-02-19T08:54:22;1.85;;;1.75;;
62509;SDS011;48558;48.242;11.654;2023-02-19T08:58:35;1.85;;;1.75;;
62509;SDS011;48558;48.242;11.654;2023-02-19T09:02:48;1.88;;;1.77;;
62509;SDS011;48558;48.242;11.654;2023-02-19T09:07:01;1.23;;;1.23;;
62509;SDS011;48558;48.242;11.654;2023-02-19T09:11:14;1.73;;;1.63;;
62509;SDS011;48558;48.242;11.654;2023-02-19T09:15:26;1.05;;;1.05;;
62509;SDS011;48558;48.242;11.654;2023-02-19T09:19:42;1.98;;;1.33;;
62509;SDS011;48558;48.242;11.654;2023-02-19T09:23:55;0.90;;;0.90;;
62509;SDS011;48558;48.242;11.654;2023-02-19T09:28:07;1.75;;;0.90;;
62509;SDS011;48558;48.242;11.654;2023-02-19T09:32:20;1.98;;;0.90;;
62509;SDS011;48558;48.242;11.654;2023-02-19T09:36:32;0.70;;;0.70;;
62509;SDS011;48558;48.242;11.654;2023-02-19T09:40:45;0.40;;;0.40;;
62509;SDS011;48558;48.242;11.654;2023-02-19T09:44:58;0.60;;;0.55;;
62509;SDS011;48558;48.242;11.654;2023-02-19T09:49:14;0.20;;;0.20;;
62509;SDS011;48558;48.242;11.654;2023-02-19T09:53:33;0.10;;;0.10;;
62509;SDS011;48558;48.242;11.654;2023-02-19T09:57:52;0.15;;;0.15;;
62509;SDS011;48558;48.242;11.654;2023-02-19T10:02:19;0.15;;;0.15;;
62509;SDS011;48558;48.242;11.654;2023-02-19T10:06:35;0.10;;;0.10;;
62509;SDS011;48558;48.242;11.654;2023-02-19T10:10:55;0.25;;;0.25;;
62509;SDS011;48558;48.242;11.654;2023-02-19T10:15:11;0.40;;;0.40;;
62509;SDS011;48558;48.242;11.654;2023-02-19T10:19:30;0.50;;;0.50;;
62509;SDS011;48558;48.242;11.654;2023-02-19T10:23:44;0.30;;;0.30;;
62509;SDS011;48558;48.242;11.654;2023-02-19T10:28:00;0.70;;;0.70;;
62509;SDS011;48558;48.242;11.654;2023-02-19T10:32:17;0.30;;;0.30;;
62509;SDS011;48558;48.242;11.654;2023-02-19T10:36:35;0.20;;;0.20;;
62509;SDS011;48558;48.242;11.654;2023-02-19T10:40:57;4.30;;;0.60;;
62509;SDS011;48558;48.242;11.654;2023-02-19T10:45:20;0.47;;;0.47;;
62509;SDS011;48558;48.242;11.654;2023-02-19T10:49:48;1.85;;;0.38;;
62509;SDS011;48558;48.242;11.654;2023-02-19T10:54:16;0.40;;;0.40;;
62509;SDS011;48558;48.242;11.654;2023-02-19T10:58:36;0.30;;;0.30;;
62509;SDS011;48558;48.242;11.654;2023-02-19T11:03:11;0.50;;;0.50;;
62509;SDS011;48558;48.242;11.654;2023-02-19T11:07:32;0.60;;;0.60;;
62509;SDS011;48558;48.242;11.654;2023-02-19T11:11:57;0.63;;;0.63;;
62509;SDS011;48558;48.242;11.654;2023-02-19T11:16:10;0.30;;;0.30;;
62509;SDS011;48558;48.242;11.654;2023-02-19T11:20:22;0.60;;;0.43;;
62509;SDS011;48558;48.242;11.654;2023-02-19T11:24:35;0.52;;;0.52;;
62509;SDS011;48558;48.242;11.654;2023-02-19T11:28:55;3.55;;;0.60;;
62509;SDS011;48558;48.242;11.654;2023-02-19T11:37:28;0.40;;;0.40;;
62509;SDS011;48558;48.242;11.654;2023-02-19T11:42:03;0.35;;;0.35;;
62509;SDS011;48558;48.242;11.654;2023-02-19T11:56:35;0.60;;;0.60;;
62509;SDS011;48558;48.242;11.654;2023-02-19T12:01:05;0.73;;;0.73;;
62509;SDS011;48558;48.242;11.654;2023-02-19T12:14:42;0.47;;;0.38;;
62509;SDS011;48558;48.242;11.654;2023-02-19T12:19:25;1.45;;;0.98;;
62509;SDS011;48558;48.242;11.654;2023-02-19T12:24:24;0.60;;;0.60;;
62509;SDS011;48558;48.242;11.654;2023-02-19T12:38:44;0.50;;;0.50;;
62509;SDS011;48558;48.242;11.654;2023-02-19T12:43:21;0.22;;;0.22;;
62509;SDS011;48558;48.242;11.654;2023-02-19T12:47:36;0.20;;;0.20;;
62509;SDS011;48558;48.242;11.654;2023-02-19T12:51:57;0.40;;;0.30;;
62509;SDS011;48558;48.242;11.654;2023-02-19T12:56:23;0.38;;;0.32;;
62509;SDS011;48558;48.242;11.654;2023-02-19T13:00:49;0.38;;;0.38;;
62509;SDS011;48558;48.242;11.654;2023-02-19T13:05:22;0.65;;;0.35;;
62509;SDS011;48558;48.242;11.654;2023-02-19T13:09:58;0.80;;;0.80;;
62509;SDS011;48558;48.242;11.654;2023-02-19T13:15:02;0.73;;;0.73;;
62509;SDS011;48558;48.242;11.654;2023-02-19T13:19:24;0.82;;;0.70;;
62509;SDS011;48558;48.242;11.654;2023-02-19T13:23:38;0.50;;;0.50;;
62509;SDS011;48558;48.242;11.654;2023-02-19T13:28:25;0.20;;;0.20;;
62509;SDS011;48558;48.242;11.654;2023-02-19T13:37:38;0.53;;;0.53;;
62509;SDS011;48558;48.242;11.654;2023-02-19T13:41:55;0.70;;;0.70;;
62509;SDS011;48558;48.242;11.654;2023-02-19T13:46:10;1.50;;;0.60;;
62509;SDS011;48558;48.242;11.654;2023-02-19T13:50:28;0.75;;;0.47;;
62509;SDS011;48558;48.242;11.654;2023-02-19T13:54:43;1.42;;;0.70;;
62509;SDS011;48558;48.242;11.654;2023-02-19T13:58:56;4.55;;;0.63;;
62509;SDS011;48558;48.242;11.654;2023-02-19T14:03:25;0.40;;;0.40;;
62509;SDS011;48558;48.242;11.654;2023-02-19T14:07:49;0.40;;;0.20;;
62509;SDS011;48558;48.242;11.654;2023-02-19T14:21:15;0.38;;;0.38;;
62509;SDS011;48558;48.242;11.654;2023-02-19T14:25:53;0.40;;;0.40;;
62509;SDS011;48558;48.242;11.654;2023-02-19T14:30:10;0.30;;;0.30;;
62509;SDS011;48558;48.242;11.654;2023-02-19T14:34:24;1.15;;;0.52;;
62509;SDS011;48558;48.242;11.654;2023-02-19T14:38:40;0.30;;;0.30;;
62509;SDS011;48558;48.242;11.654;2023-02-19T14:42:59;0.47;;;0.40;;
62509;SDS011;48558;48.242;11.654;2023-02-19T14:47:23;0.40;;;0.40;;
62509;SDS011;48558;48.242;11.654;2023-02-19T14:51:39;1.38;;;0.45;;
62509;SDS011;48558;48.242;11.654;2023-02-19T14:55:55;1.75;;;0.50;;
62509;SDS011;48558;48.242;11.654;2023-02-19T15:04:40;2.30;;;0.70;;
62509;SDS011;48558;48.242;11.654;2023-02-19T15:08:56;0.68;;;0.68;;
62509;SDS011;48558;48.242;11.654;2023-02-19T15:13:17;2.25;;;0.80;;
62509;SDS011;48558;48.242;11.654;2023-02-19T15:17:36;3.03;;;0.90;;
62509;SDS011;48558;48.242;11.654;2023-02-19T15:21:52;0.75;;;0.75;;
62509;SDS011;48558;48.242;11.654;2023-02-19T15:26:17;0.52;;;0.52;;
62509;SDS011;48558;48.242;11.654;2023-02-19T15:30:33;0.55;;;0.45;;
62509;SDS011;48558;48.242;11.654;2023-02-19T15:34:55;0.93;;;0.80;;
62509;SDS011;48558;48.242;11.654;2023-02-19T15:39:11;1.17;;;1.08;;
62509;SDS011;48558;48.242;11.654;2023-02-19T15:47:57;0.60;;;0.47;;
62509;SDS011;48558;48.242;11.654;2023-02-19T15:52:19;1.00;;;0.77;;
62509;SDS011;48558;48.242;11.654;2023-02-19T15:57:12;0.52;;;0.38;;
62509;SDS011;48558;48.242;11.654;2023-02-19T16:01:30;5.65;;;1.00;;
62509;SDS011;48558;48.242;11.654;2023-02-19T16:06:28;0.45;;;0.45;;
62509;SDS011;48558;48.242;11.654;2023-02-19T16:10:34;0.85;;;0.63;;
62509;SDS011;48558;48.242;11.654;2023-02-19T16:14:46;0.63;;;0.60;;
62509;SDS011;48558;48.242;11.654;2023-02-19T16:19:00;1.08;;;0.68;;
62509;SDS011;48558;48.242;11.654;2023-02-19T16:23:13;0.60;;;0.60;;
62509;SDS011;48558;48.242;11.654;2023-02-19T16:27:39;1.33;;;1.02;;
62509;SDS011;48558;48.242;11.654;2023-02-19T16:31:56;1.02;;;0.73;;
62509;SDS011;48558;48.242;11.654;2023-02-19T16:44:56;2.38;;;0.90;;
62509;SDS011;48558;48.242;11.654;2023-02-19T16:49:08;2.67;;;0.90;;
62509;SDS011;48558;48.242;11.654;2023-02-19T16:53:22;0.77;;;0.77;;
62509;SDS011;48558;48.242;11.654;2023-02-19T16:57:36;0.60;;;0.60;;
62509;SDS011;48558;48.242;11.654;2023-02-19T17:01:48;0.93;;;0.75;;
62509;SDS011;48558;48.242;11.654;2023-02-19T17:06:01;0.75;;;0.75;;
62509;SDS011;48558;48.242;11.654;2023-02-19T17:10:17;0.60;;;0.60;;
62509;SDS011;48558;48.242;11.654;2023-02-19T17:14:33;0.68;;;0.35;;
62509;SDS011;48558;48.242;11.654;2023-02-19T17:18:46;1.98;;;0.80;;
62509;SDS011;48558;48.242;11.654;2023-02-19T17:22:59;0.73;;;0.68;;
62509;SDS011;48558;48.242;11.654;2023-02-19T17:27:11;1.13;;;0.77;;
62509;SDS011;48558;48.242;11.654;2023-02-19T17:31:25;0.98;;;0.70;;
62509;SDS011;48558;48.242;11.654;2023-02-19T17:35:38;2.88;;;0.47;;
62509;SDS011;48558;48.242;11.654;2023-02-19T17:39:51;2.25;;;0.88;;
62509;SDS011;48558;48.242;11.654;2023-02-19T17:44:03;1.38;;;0.68;;
62509;SDS011;48558;48.242;11.654;2023-02-19T17:48:15;1.17;;;1.08;;
62509;SDS011;48558;48.242;11.654;2023-02-19T17:52:28;2.00;;;0.90;;
62509;SDS011;48558;48.242;11.654;2023-02-19T17:56:41;1.85;;;0.93;;
62509;SDS011;48558;48.242;11.654;2023-02-19T18:00:56;6.18;;;1.02;;
62509;SDS011;48558;48.242;11.654;2023-02-19T18:05:09;0.73;;;0.70;;
62509;SDS011;48558;48.242;11.654;2023-02-19T18:09:22;1.23;;;1.02;;
62509;SDS011;48558;48.242;11.654;2023-02-19T18:13:35;0.85;;;0.85;;
62509;SDS011;48558;48.242;11.654;2023-02-19T18:17:47;1.77;;;1.50;;
62509;SDS011;48558;48.242;11.654;2023-02-19T18:22:01;1.02;;;0.90;;
62509;SDS011;48558;48.242;11.654;2023-02-19T18:30:33;2.60;;;1.40;;
62509;SDS011;48558;48.242;11.654;2023-02-19T18:34:49;1.80;;;1.50;;
62509;SDS011;48558;48.242;11.654;2023-02-19T18:39:06;1.15;;;1.10;;
62509;SDS011;48558;48.242;11.654;2023-02-19T18:43:18;2.00;;;1.33;;
62509;SDS011;48558;48.242;11.654;2023-02-19T18:47:31;7.20;;;2.33;;
62509;SDS011;48558;48.242;11.654;2023-02-19T18:51:48;0.93;;;0.93;;
62509;SDS011;48558;48.242;11.654;2023-02-19T18:56:01;2.83;;;1.67;;
62509;SDS011;48558;48.242;11.654;2023-02-19T19:00:17;1.35;;;1.25;;
62509;SDS011;48558;48.242;11.654;2023-02-19T19:04:34;3.25;;;1.20;;
62509;SDS011;48558;48.242;11.654;2023-02-19T19:13:05;1.02;;;1.00;;
62509;SDS011;48558;48.242;11.654;2023-02-19T19:17:18;1.25;;;1.15;;
62509;SDS011;48558;48.242;11.654;2023-02-19T19:21:31;2.30;;;1.50;;
62509;SDS011;48558;48.242;11.654;2023-02-19T19:25:43;6.40;;;4.25;;
62509;SDS011;48558;48.242;11.654;2023-02-19T19:29:56;1.02;;;1.02;;
62509;SDS011;48558;48.242;11.654;2023-02-19T19:34:08;1.08;;;1.08;;
62509;SDS011;48558;48.242;11.654;2023-02-19T19:38:22;2.10;;;0.90;;
62509;SDS011;48558;48.242;11.654;2023-02-19T19:42:35;1.15;;;1.05;;
62509;SDS011;48558;48.242;11.654;2023-02-19T19:46:47;1.48;;;1.10;;
62509;SDS011;48558;48.242;11.654;2023-02-19T19:51:01;2.47;;;1.27;;
62509;SDS011;48558;48.242;11.654;2023-02-19T19:55:13;1.85;;;1.40;;
62509;SDS011;48558;48.242;11.654;2023-02-19T19:59:27;1.45;;;1.23;;
62509;SDS011;48558;48.242;11.654;2023-02-19T20:03:39;1.13;;;0.90;;
62509;SDS011;48558;48.242;11.654;2023-02-19T20:07:52;0.77;;;0.77;;
62509;SDS011;48558;48.242;11.654;2023-02-19T20:12:05;5.38;;;3.83;;
62509;SDS011;48558;48.242;11.654;2023-02-19T20:16:22;2.28;;;1.95;;
62509;SDS011;48558;48.242;11.654;2023-02-19T20:20:39;2.42;;;1.48;;
62509;SDS011;48558;48.242;11.654;2023-02-19T20:24:52;1.17;;;1.10;;
62509;SDS011;48558;48.242;11.654;2023-02-19T20:29:06;1.60;;;1.42;;
62509;SDS011;48558;48.242;11.654;2023-02-19T20:33:29;4.72;;;2.55;;
62509;SDS011;48558;48.242;11.654;2023-02-19T20:37:41;2.70;;;1.40;;
62509;SDS011;48558;48.242;11.654;2023-02-19T20:41:55;3.00;;;1.58;;
62509;SDS011;48558;48.242;11.654;2023-02-19T20:46:09;2.60;;;2.40;;
62509;SDS011;48558;48.242;11.654;2023-02-19T20:50:22;3.92;;;2.63;;
62509;SDS011;48558;48.242;11.654;2023-02-19T20:54:36;3.58;;;2.40;;
62509;SDS011;48558;48.242;11.654;2023-02-19T20:58:49;1.40;;;1.30;;
62509;SDS011;48558;48.242;11.654;2023-02-19T21:03:01;1.77;;;1.50;;
62509;SDS011;48558;48.242;11.654;2023-02-19T21:07:14;2.33;;;1.60;;
62509;SDS011;48558;48.242;11.654;2023-02-19T21:11:37;2.00;;;1.25;;
62509;SDS011;48558;48.242;11.654;2023-02-19T21:15:51;2.28;;;1.48;;
62509;SDS011;48558;48.242;11.654;2023-02-19T21:20:14;8.15;;;1.60;;
62509;SDS011;48558;48.242;11.654;2023-02-19T21:24:31;1.55;;;1.40;;
62509;SDS011;48558;48.242;11.654;2023-02-19T21:28:43;1.20;;;1.20;;
62509;SDS011;48558;48.242;11.654;2023-02-19T21:32:56;4.78;;;1.30;;
62509;SDS011;48558;48.242;11.654;2023-02-19T21:37:19;3.10;;;1.40;;
62509;SDS011;48558;48.242;11.654;2023-02-19T21:41:31;2.40;;;1.33;;
62509;SDS011;48558;48.242;11.654;2023-02-19T21:45:44;1.40;;;1.30;;
62509;SDS011;48558;48.242;11.654;2023-02-19T21:49:56;3.15;;;1.20;;
62509;SDS011;48558;48.242;11.654;2023-02-19T21:54:18;2.03;;;1.02;;
62509;SDS011;48558;48.242;11.654;2023-02-19T21:58:35;2.10;;;1.33;;
62509;SDS011;48558;48.242;11.654;2023-02-19T22:02:49;1.80;;;1.30;;
62509;SDS011;48558;48.242;11.654;2023-02-19T22:07:01;1.13;;;1.02;;
62509;SDS011;48558;48.242;11.654;2023-02-19T22:11:14;3.40;;;1.10;;
62509;SDS011;48558;48.242;11.654;2023-02-19T22:15:26;1.33;;;1.00;;
62509;SDS011;48558;48.242;11.654;2023-02-19T22:19:39;2.80;;;1.10;;
62509;SDS011;48558;48.242;11.654;2023-02-19T22:23:51;1.52;;;0.90;;
62509;SDS011;48558;48.242;11.654;2023-02-19T22:28:05;2.55;;;1.10;;
62509;SDS011;48558;48.242;11.654;2023-02-19T22:32:18;1.75;;;1.25;;
62509;SDS011;48558;48.242;11.654;2023-02-19T22:36:32;1.65;;;1.27;;
62509;SDS011;48558;48.242;11.654;2023-02-19T22:40:48;2.13;;;1.10;;
62509;SDS011;48558;48.242;11.654;2023-02-19T22:45:00;1.00;;;1.00;;
62509;SDS011;48558;48.242;11.654;2023-02-19T22:49:13;1.83;;;1.08;;
62509;SDS011;48558;48.242;11.654;2023-02-19T22:53:26;1.60;;;1.17;;
62509;SDS011;48558;48.242;11.654;2023-02-19T22:57:39;1.60;;;1.10;;
62509;SDS011;48558;48.242;11.654;2023-02-19T23:01:51;1.33;;;1.08;;
62509;SDS011;48558;48.242;11.654;2023-02-19T23:06:04;1.88;;;0.93;;
62509;SDS011;48558;48.242;11.654;2023-02-19T23:10:17;1.08;;;1.00;;
62509;SDS011;48558;48.242;11.654;2023-02-19T23:14:29;0.90;;;0.90;;
62509;SDS011;48558;48.242;11.654;2023-02-19T23:18:42;2.58;;;1.27;;
62509;SDS011;48558;48.242;11.654;2023-02-19T23:22:54;1.40;;;1.30;;
62509;SDS011;48558;48.242;11.654;2023-02-19T23:27:07;2.97;;;0.98;;
62509;SDS011;48558;48.242;11.654;2023-02-19T23:31:20;1.10;;;1.00;;
62509;SDS011;48558;48.242;11.654;2023-02-19T23:35:32;2.10;;;1.17;;
62509;SDS011;48558;48.242;11.654;2023-02-19T23:39:45;4.72;;;1.02;;
62509;SDS011;48558;48.242;11.654;2023-02-19T23:43:57;1.15;;;1.00;;
62509;SDS011;48558;48.242;11.654;2023-02-19T23:48:10;3.58;;;1.17;;
62509;SDS011;48558;48.242;11.654;2023-02-19T23:52:22;2.60;;;1.10;;
62509;SDS011;48558;48.242;11.654;2023-02-19T23:56:35;4.57;;;1.17;;
